F/b Marpesca — IUAR — position and weather

sailwx.info

Track history (hours):
 
Tides and Currents Weather Stations Pressure Air Temp Water Temp Dewpoint Dewpoint Depression Visibility Wind Speed Wind Dir Waves Ship Positions

F/b Marpesca

Last reported at 2016-Oct-04 15:33 UTC. Time now 2016-Dec-09 09:51 UTC.
Position N 34°31' E 033°28'.
Warning: this ship's position is months out of date.

Length 28 m; draft 3.5 m.

Type: Fishing. MMSI: 247100040.

Date/timePositionNaut miles runAvg speedWind from/ knotsBaromVisibWave heightAir tempDewpointWater temp
2016-Oct-04 15:33N 34°31' E 033°28'15 6.3
2016-Oct-04 13:15N 34°36' E 033°11'6 8.8
2016-Oct-04 12:33N 34°38' E 033°05'3 1.4
2016-Oct-04 10:33N 34°39' E 033°01'0 0.0
2016-Oct-04 08:33N 34°39' E 033°01'0 0.0
2016-Oct-04 07:33N 34°39' E 033°01'0 0.0
2016-Oct-04 04:33N 34°39' E 033°01'0 0.0
2016-Oct-04 02:33N 34°39' E 033°01'0 0.0
2016-Oct-03 23:33N 34°39' E 033°01'0 0.0
2016-Oct-03 20:33N 34°39' E 033°01'0 0.0
2016-Oct-03 19:34N 34°39' E 033°01'0 0.0
2016-Oct-03 17:33N 34°39' E 033°01'0 0.0
2016-Oct-03 11:33N 34°39' E 033°01'0 0.0
2016-Oct-03 10:33N 34°39' E 033°01'0 0.0
2016-Oct-03 09:33N 34°39' E 033°01'0 0.0
2016-Oct-03 05:34N 34°39' E 033°01'2 2.4
2016-Oct-03 04:33N 34°38' E 033°04'22 1.4
2016-Oct-02 12:32N 34°31' E 033°29'  
Track history (hours):
 
Tides and Currents Weather Stations Pressure Air Temp Water Temp Dewpoint Dewpoint Depression Visibility Wind Speed Wind Dir Waves Ship Positions

F/b Marpesca

Last reported at 2016-Oct-04 15:33 UTC. Time now 2016-Dec-09 09:51 UTC.
Position N 34°31' E 033°28'.
Warning: this ship's position is months out of date.

Length 28 m; draft 3.5 m.

Type: Fishing. MMSI: 247100040.

Date/timePositionNaut miles runAvg speedWind from/ knotsBaromVisibWave heightAir tempDewpointWater temp
2016-Oct-04 15:33N 34°31' E 033°28'15 6.3
2016-Oct-04 13:15N 34°36' E 033°11'6 8.8
2016-Oct-04 12:33N 34°38' E 033°05'3 1.4
2016-Oct-04 10:33N 34°39' E 033°01'0 0.0
2016-Oct-04 08:33N 34°39' E 033°01'0 0.0
2016-Oct-04 07:33N 34°39' E 033°01'0 0.0
2016-Oct-04 04:33N 34°39' E 033°01'0 0.0
2016-Oct-04 02:33N 34°39' E 033°01'0 0.0
2016-Oct-03 23:33N 34°39' E 033°01'0 0.0
2016-Oct-03 20:33N 34°39' E 033°01'0 0.0
2016-Oct-03 19:34N 34°39' E 033°01'0 0.0
2016-Oct-03 17:33N 34°39' E 033°01'0 0.0
2016-Oct-03 11:33N 34°39' E 033°01'0 0.0
2016-Oct-03 10:33N 34°39' E 033°01'0 0.0
2016-Oct-03 09:33N 34°39' E 033°01'0 0.0
2016-Oct-03 05:34N 34°39' E 033°01'2 2.4
2016-Oct-03 04:33N 34°38' E 033°04'22 1.4
2016-Oct-02 12:32N 34°31' E 033°29'  

Dump ship's entire track history